Time;durP1;ratioP1;P1;durP2;ratioP2;P2;SDS_P1;SDS_P2;PMS_P1;PMS_P2;Temp;Humidity;BMP_temperature;BMP_pressure;BME280_temperature;BME280_humidity;BME280_pressure;Samples;Min_cycle;Max_cycle;Signal;HPM_P1;HPM_P2
2023/06/02 00:02:02;;;;;;;0.20;0.20;;;;;;;18.46;43.82;102288.69;5062101;28;20134;-66
2023/06/02 00:04:29;;;;;;;0.15;0.15;;;;;;;18.13;43.69;102289.34;5063960;28;20067;-65
2023/06/02 00:06:55;;;;;;;0.10;0.10;;;;;;;18.06;45.10;102288.66;5061490;28;20117;-65
2023/06/02 00:09:21;;;;;;;0.13;0.13;;;;;;;18.42;43.76;102277.47;5058367;28;20017;-66
2023/06/02 00:11:46;;;;;;;0.10;0.10;;;;;;;17.89;45.22;102276.84;5052844;28;20033;-66
2023/06/02 00:14:12;;;;;;;0.10;0.10;;;;;;;18.56;43.81;102280.72;5052700;28;20484;-67
2023/06/02 00:16:45;;;;;;;0.20;0.20;;;;;;;18.22;44.72;102277.03;5052660;28;20511;-66
2023/06/02 00:19:11;;;;;;;0.20;0.20;;;;;;;17.77;45.22;102283.38;5047517;28;20539;-65
2023/06/02 00:21:36;;;;;;;0.13;0.13;;;;;;;17.70;45.26;102275.34;5046635;28;20041;-66
2023/06/02 00:24:02;;;;;;;0.20;0.20;;;;;;;18.05;44.90;102278.84;5052921;28;20028;-65
2023/06/02 00:26:28;;;;;;;0.10;0.10;;;;;;;18.70;42.63;102267.66;5052764;28;20542;-64
2023/06/02 00:28:55;;;;;;;0.10;0.10;;;;;;;18.31;43.01;102272.03;5059991;28;20054;-66
2023/06/02 00:31:21;;;;;;;0.20;0.20;;;;;;;17.64;45.03;102268.13;5040392;28;20033;-68
2023/06/02 00:33:46;;;;;;;0.20;0.20;;;;;;;18.70;42.96;102264.91;5036661;28;20036;-66
2023/06/02 00:36:12;;;;;;;0.10;0.10;;;;;;;17.27;46.72;102272.94;5066021;28;20009;-64
2023/06/02 00:38:37;;;;;;;0.13;0.13;;;;;;;18.06;44.43;102269.59;5035251;28;20049;-65
2023/06/02 00:41:03;;;;;;;0.20;0.20;;;;;;;18.84;42.85;102269.00;5045146;28;20048;-66
2023/06/02 00:43:28;;;;;;;0.20;0.20;;;;;;;16.75;48.09;102276.47;5042397;28;20040;-64
2023/06/02 00:45:53;;;;;;;0.20;0.20;;;;;;;17.69;45.61;102265.50;5052272;28;20033;-65
2023/06/02 00:48:19;;;;;;;0.20;0.20;;;;;;;18.64;43.30;102272.19;5052987;28;20021;-66
2023/06/02 00:50:44;;;;;;;0.20;0.20;;;;;;;17.43;45.89;102271.41;5052506;28;20216;-66
2023/06/02 00:53:11;;;;;;;0.20;0.20;;;;;;;18.00;44.37;102276.03;5052461;28;20091;-66
2023/06/02 00:55:36;;;;;;;0.10;0.10;;;;;;;18.85;42.68;102270.66;5054571;28;20051;-67
2023/06/02 00:58:03;;;;;;;0.20;0.20;;;;;;;17.41;45.55;102279.78;5052039;28;20041;-66
2023/06/02 01:00:33;;;;;;;0.17;0.17;;;;;;;18.17;43.87;102286.97;5052586;28;20025;-66
2023/06/02 01:02:59;;;;;;;0.15;0.15;;;;;;;18.16;43.81;102282.63;5033922;28;20053;-65
2023/06/02 01:05:26;;;;;;;0.17;0.17;;;;;;;18.61;42.25;102290.91;5051874;28;20567;-66
2023/06/02 01:07:58;;;;;;;0.20;0.20;;;;;;;17.53;44.74;102282.56;5052361;28;20033;-66
2023/06/02 01:10:25;;;;;;;0.00;0.00;;;;;;;16.66;45.79;102278.69;5052424;28;20764;-67
2023/06/02 01:12:51;;;;;;;0.17;0.17;;;;;;;16.59;46.45;102277.94;5052169;28;20020;-67
2023/06/02 01:15:17;;;;;;;0.20;0.20;;;;;;;17.93;43.54;102272.59;5052939;28;20031;-66
2023/06/02 01:17:46;;;;;;;0.10;0.10;;;;;;;18.59;42.02;102269.38;5051978;28;20385;-64
2023/06/02 01:20:13;;;;;;;0.20;0.20;;;;;;;19.07;40.72;102280.59;5051852;28;20041;-65
2023/06/02 01:23:15;;;;;;;0.15;0.15;;;;;;;18.73;41.67;102276.16;5066528;28;20451;-66
2023/06/02 01:25:41;;;;;;;0.20;0.20;;;;;;;17.99;43.04;102282.53;4989507;28;20537;-65
2023/06/02 01:28:06;;;;;;;0.20;0.20;;;;;;;18.03;43.84;102278.25;4989730;28;20045;-65
2023/06/02 01:30:33;;;;;;;0.15;0.15;;;;;;;18.05;43.59;102280.72;4989222;28;20042;-67
2023/06/02 01:33:12;;;;;;;0.20;0.20;;;;;;;17.36;45.26;102282.38;4972982;28;20532;-66
2023/06/02 01:35:43;;;;;;;0.20;0.20;;;;;;;16.79;46.66;102271.38;4988970;28;20582;-67
2023/06/02 01:38:10;;;;;;;0.20;0.20;;;;;;;16.90;46.29;102284.19;4988887;28;20044;-66
2023/06/02 01:40:37;;;;;;;0.30;0.30;;;;;;;17.97;44.42;102283.81;4988932;28;20470;-65
2023/06/02 01:43:03;;;;;;;0.20;0.20;;;;;;;17.53;44.62;102283.38;4988820;28;20084;-66
2023/06/02 01:45:31;;;;;;;0.10;0.10;;;;;;;17.63;44.37;102282.78;4989288;28;20034;-65
2023/06/02 01:48:06;;;;;;;0.20;0.20;;;;;;;17.72;44.46;102283.25;4988450;28;20026;-65
2023/06/02 01:50:34;;;;;;;0.20;0.20;;;;;;;17.53;44.58;102279.84;4988567;28;20034;-65
2023/06/02 01:52:59;;;;;;;0.10;0.10;;;;;;;17.27;44.51;102274.81;4988598;28;20612;-65
2023/06/02 01:55:25;;;;;;;0.25;0.25;;;;;;;17.64;44.40;102279.00;4988295;28;20035;-67
2023/06/02 01:57:51;;;;;;;0.17;0.17;;;;;;;18.39;42.23;102280.66;4988155;28;20100;-64
2023/06/02 02:00:18;;;;;;;0.10;0.10;;;;;;;17.52;44.32;102273.56;4988895;28;20034;-65
2023/06/02 02:02:43;;;;;;;0.10;0.10;;;;;;;17.78;43.67;102277.72;5020666;28;20654;-66
2023/06/02 02:05:10;;;;;;;0.20;0.20;;;;;;;17.39;44.61;102270.22;5033234;28;20036;-66
2023/06/02 02:07:35;;;;;;;0.20;0.20;;;;;;;17.39;45.60;102271.03;5050870;28;20029;-66
2023/06/02 02:10:02;;;;;;;0.15;0.15;;;;;;;17.34;45.22;102272.81;5051057;28;20039;-66
2023/06/02 02:12:28;;;;;;;0.10;0.10;;;;;;;17.22;45.21;102278.22;5033330;28;20478;-64
2023/06/02 02:14:56;;;;;;;0.10;0.10;;;;;;;16.69;47.09;102275.50;5055335;28;20039;-65
2023/06/02 02:17:25;;;;;;;0.10;0.10;;;;;;;18.04;43.70;102271.72;5070713;28;20091;-67
2023/06/02 02:19:51;;;;;;;0.20;0.20;;;;;;;18.34;42.76;102275.09;5070651;28;20051;-66
2023/06/02 02:22:17;;;;;;;0.10;0.10;;;;;;;17.88;43.96;102277.09;5060530;28;20040;-66
2023/06/02 02:24:42;;;;;;;0.20;0.20;;;;;;;17.82;44.23;102272.63;5050963;28;20104;-67
2023/06/02 02:27:08;;;;;;;0.22;0.22;;;;;;;17.68;44.45;102273.91;5051207;28;20047;-66
2023/06/02 02:29:36;;;;;;;0.20;0.20;;;;;;;18.80;42.16;102271.41;5050662;28;20025;-66
2023/06/02 02:32:01;;;;;;;0.10;0.10;;;;;;;18.16;43.07;102267.09;5050533;28;20053;-65
2023/06/02 02:34:28;;;;;;;0.10;0.10;;;;;;;18.52;42.07;102274.13;5050537;28;20040;-65
2023/06/02 02:36:58;;;;;;;0.25;0.25;;;;;;;17.44;44.54;102267.63;5050581;28;20087;-65
2023/06/02 02:39:24;;;;;;;0.13;0.13;;;;;;;17.84;43.80;102275.91;5066483;28;20513;-66
2023/06/02 02:41:49;;;;;;;0.20;0.20;;;;;;;18.50;41.29;102261.81;5050602;28;20044;-65
2023/06/02 02:44:14;;;;;;;0.22;0.22;;;;;;;18.56;42.09;102264.41;5042858;28;20111;-69
2023/06/02 02:46:40;;;;;;;0.20;0.20;;;;;;;18.13;42.74;102275.75;5012840;28;20528;-66
2023/06/02 02:49:06;;;;;;;0.20;0.20;;;;;;;18.83;41.10;102265.44;5030591;28;20041;-66
2023/06/02 02:51:32;;;;;;;0.20;0.20;;;;;;;18.18;42.90;102264.16;5031052;28;20036;-65
2023/06/02 02:53:57;;;;;;;0.10;0.10;;;;;;;18.69;41.94;102266.00;5030674;28;20041;-67
2023/06/02 02:56:23;;;;;;;0.10;0.10;;;;;;;17.73;44.01;102265.91;5024538;28;20040;-67
2023/06/02 02:58:48;;;;;;;0.20;0.20;;;;;;;17.88;43.58;102261.63;5050236;28;20093;-65
2023/06/02 03:01:15;;;;;;;0.10;0.10;;;;;;;18.21;43.30;102261.78;5050305;28;20033;-65
2023/06/02 03:03:41;;;;;;;0.20;0.20;;;;;;;18.80;41.50;102252.31;5050209;28;20028;-66
2023/06/02 03:06:07;;;;;;;0.20;0.20;;;;;;;18.56;42.20;102256.22;5050490;28;20028;-66
2023/06/02 03:08:32;;;;;;;0.20;0.20;;;;;;;19.04;40.89;102253.84;5050240;28;20029;-66
2023/06/02 03:10:58;;;;;;;0.10;0.10;;;;;;;19.32;40.23;102255.63;5050415;28;20033;-66
2023/06/02 03:13:23;;;;;;;0.20;0.20;;;;;;;18.34;42.71;102260.66;5050268;28;20366;-65
2023/06/02 03:15:49;;;;;;;0.22;0.22;;;;;;;18.39;42.04;102267.06;5047073;28;20024;-65
2023/06/02 03:18:14;;;;;;;0.17;0.17;;;;;;;17.68;44.16;102272.03;5058148;28;20411;-67
2023/06/02 03:20:41;;;;;;;0.10;0.10;;;;;;;17.94;43.09;102262.53;5049790;28;20401;-66
2023/06/02 03:23:06;;;;;;;0.10;0.10;;;;;;;17.13;44.87;102266.06;5049843;28;20041;-64
2023/06/02 03:25:32;;;;;;;0.10;0.10;;;;;;;17.08;45.57;102259.69;5049371;28;20041;-66
2023/06/02 03:27:57;;;;;;;0.20;0.20;;;;;;;17.53;44.80;102264.34;5049554;28;20052;-65
2023/06/02 03:30:23;;;;;;;0.15;0.15;;;;;;;18.60;41.81;102265.56;5050205;28;20029;-65
2023/06/02 03:32:49;;;;;;;0.10;0.10;;;;;;;18.83;40.80;102260.00;5049935;28;20041;-65
2023/06/02 03:35:14;;;;;;;0.10;0.10;;;;;;;18.80;41.50;102255.06;5050081;28;20037;-66
2023/06/02 03:37:40;;;;;;;0.20;0.20;;;;;;;18.35;43.13;102262.31;5049846;28;20041;-65
2023/06/02 03:40:07;;;;;;;0.10;0.10;;;;;;;18.73;42.19;102265.25;5049873;28;20578;-65
2023/06/02 03:42:33;;;;;;;0.10;0.10;;;;;;;18.75;42.96;102257.66;5050153;28;20023;-65
2023/06/02 03:44:58;;;;;;;0.10;0.10;;;;;;;18.50;43.43;102261.81;5045611;28;20021;-64
2023/06/02 03:47:23;;;;;;;0.20;0.20;;;;;;;19.08;42.02;102256.91;5049848;28;20033;-64
2023/06/02 03:49:49;;;;;;;0.10;0.10;;;;;;;19.67;40.60;102258.97;5049930;28;20047;-66
2023/06/02 03:52:15;;;;;;;0.20;0.20;;;;;;;18.73;42.69;102261.72;5050019;28;20029;-64
2023/06/02 03:54:40;;;;;;;0.20;0.20;;;;;;;19.61;41.20;102256.41;5049468;28;20021;-65
2023/06/02 03:57:06;;;;;;;0.10;0.10;;;;;;;19.34;41.74;102253.53;5053478;28;20025;-65
2023/06/02 03:59:31;;;;;;;0.17;0.17;;;;;;;18.59;43.48;102266.66;5053586;28;20431;-65
2023/06/02 04:01:57;;;;;;;0.20;0.20;;;;;;;19.10;42.00;102262.94;5051680;28;20025;-66
2023/06/02 04:04:22;;;;;;;0.10;0.10;;;;;;;18.80;42.47;102260.50;5053066;28;20087;-66
2023/06/02 04:06:47;;;;;;;0.20;0.20;;;;;;;18.73;43.16;102262.53;5052596;28;20036;-66
2023/06/02 04:09:13;;;;;;;0.10;0.10;;;;;;;19.07;42.54;102266.97;5053520;28;20412;-65
2023/06/02 04:11:39;;;;;;;0.10;0.10;;;;;;;19.00;43.00;102265.47;5052813;28;20044;-66
2023/06/02 04:14:04;;;;;;;0.10;0.10;;;;;;;18.57;43.78;102270.69;5048807;28;20132;-65
2023/06/02 04:16:30;;;;;;;0.10;0.10;;;;;;;19.02;42.72;102274.22;5050597;28;20120;-66
2023/06/02 04:18:55;;;;;;;0.10;0.10;;;;;;;19.08;42.88;102274.09;5052551;28;20063;-66
2023/06/02 04:21:20;;;;;;;0.20;0.20;;;;;;;18.97;42.58;102272.25;5053423;28;20068;-65
2023/06/02 04:23:46;;;;;;;0.20;0.20;;;;;;;18.73;43.46;102270.69;5053021;28;20090;-65
2023/06/02 04:26:11;;;;;;;0.10;0.10;;;;;;;18.83;43.51;102278.25;5053033;28;20108;-66
2023/06/02 04:28:37;;;;;;;0.10;0.10;;;;;;;18.63;43.54;102283.31;5052794;28;20549;-68
2023/06/02 04:31:05;;;;;;;0.10;0.10;;;;;;;19.15;42.60;102280.19;5052727;28;20028;-65
2023/06/02 04:33:31;;;;;;;0.20;0.20;;;;;;;18.48;44.78;102283.00;5053238;28;20176;-66
2023/06/02 04:35:57;;;;;;;0.20;0.20;;;;;;;18.13;45.02;102283.91;5052959;28;20167;-66
2023/06/02 04:38:22;;;;;;;0.28;0.28;;;;;;;18.55;44.82;102286.44;5052917;28;20137;-65
2023/06/02 04:40:48;;;;;;;0.20;0.20;;;;;;;18.64;44.56;102277.63;5052736;28;20496;-66
2023/06/02 04:43:14;;;;;;;0.10;0.10;;;;;;;18.91;44.05;102280.56;5052157;28;20477;-66
2023/06/02 04:45:43;;;;;;;0.17;0.17;;;;;;;19.44;42.51;102291.06;5052003;28;20028;-66
2023/06/02 04:48:09;;;;;;;0.10;0.10;;;;;;;19.48;41.97;102284.03;5049791;28;20024;-67
2023/06/02 04:50:35;;;;;;;0.10;0.10;;;;;;;19.52;42.33;102291.44;5034286;28;20033;-66
2023/06/02 04:53:00;;;;;;;0.10;0.10;;;;;;;19.05;43.70;102293.63;5052222;28;20033;-65
2023/06/02 04:55:26;;;;;;;0.20;0.20;;;;;;;19.14;42.77;102294.06;5051891;28;20033;-69
2023/06/02 04:57:51;;;;;;;0.10;0.10;;;;;;;19.33;42.55;102284.59;5051662;28;20152;-65
2023/06/02 05:00:17;;;;;;;0.10;0.10;;;;;;;19.84;41.60;102292.47;5052726;28;20020;-68
2023/06/02 05:02:42;;;;;;;0.10;0.10;;;;;;;19.90;41.85;102288.75;5051800;28;20036;-66
2023/06/02 05:05:08;;;;;;;0.20;0.20;;;;;;;19.92;41.49;102288.50;5051757;28;20031;-65
2023/06/02 05:07:34;;;;;;;0.20;0.20;;;;;;;19.54;42.84;102294.75;5051478;28;20492;-65
2023/06/02 05:09:59;;;;;;;0.10;0.10;;;;;;;19.25;43.17;102294.00;5052463;28;20041;-65
2023/06/02 05:12:25;;;;;;;0.10;0.10;;;;;;;19.20;43.75;102293.09;5051492;28;20025;-66
2023/06/02 05:14:51;;;;;;;0.20;0.20;;;;;;;19.03;43.46;102289.50;5048921;28;20036;-65
2023/06/02 05:17:24;;;;;;;0.20;0.20;;;;;;;19.34;43.33;102296.34;5034077;28;20097;-65
2023/06/02 05:19:53;;;;;;;0.20;0.20;;;;;;;18.89;44.47;102293.59;5051395;28;20049;-64
2023/06/02 05:22:19;;;;;;;0.20;0.20;;;;;;;19.28;43.37;102292.69;5051897;28;20037;-66
2023/06/02 05:24:44;;;;;;;0.20;0.20;;;;;;;19.36;43.68;102292.25;5051542;28;20506;-66
2023/06/02 05:27:10;;;;;;;0.10;0.10;;;;;;;19.55;43.05;102296.41;5051602;28;20032;-65
2023/06/02 05:29:35;;;;;;;0.10;0.10;;;;;;;19.54;43.40;102291.19;5032886;28;20051;-65
2023/06/02 05:32:01;;;;;;;0.08;0.08;;;;;;;18.16;47.12;102294.31;5050359;28;20048;-65
2023/06/02 05:34:26;;;;;;;0.10;0.10;;;;;;;18.92;44.78;102293.97;5051270;28;20040;-65
2023/06/02 05:36:51;;;;;;;0.10;0.10;;;;;;;18.30;46.80;102300.31;5051680;28;20122;-65
2023/06/02 05:39:17;;;;;;;0.20;0.20;;;;;;;18.65;46.02;102301.06;5051978;28;20029;-66
2023/06/02 05:41:42;;;;;;;0.20;0.20;;;;;;;17.73;47.94;102307.47;5050819;28;20044;-67
2023/06/02 05:44:08;;;;;;;0.10;0.10;;;;;;;18.68;45.71;102297.84;5050829;28;20029;-65
2023/06/02 05:46:33;;;;;;;0.10;0.10;;;;;;;19.84;43.10;102295.22;5050941;28;20095;-66
2023/06/02 05:48:59;;;;;;;0.10;0.10;;;;;;;19.71;42.85;102292.84;5050923;28;20095;-65
2023/06/02 05:51:24;;;;;;;0.10;0.10;;;;;;;19.54;43.64;102305.66;5056605;28;20078;-65
2023/06/02 05:53:50;;;;;;;0.10;0.10;;;;;;;20.04;42.83;102306.41;5055945;28;20063;-65
2023/06/02 05:56:16;;;;;;;0.20;0.20;;;;;;;19.17;44.38;102299.00;5061426;28;20044;-65
2023/06/02 05:58:41;;;;;;;0.10;0.10;;;;;;;18.94;45.23;102289.09;5056668;28;20057;-65
2023/06/02 06:01:08;;;;;;;0.10;0.10;;;;;;;18.58;46.51;102294.94;5060809;28;20495;-65
2023/06/02 06:03:34;;;;;;;0.10;0.10;;;;;;;19.76;43.22;102292.91;5040638;28;20049;-66
2023/06/02 06:06:00;;;;;;;0.10;0.10;;;;;;;19.58;44.03;102293.19;5052499;28;20124;-66
2023/06/02 06:08:26;;;;;;;0.10;0.10;;;;;;;19.55;44.48;102284.66;5032616;28;20064;-66
2023/06/02 06:10:51;;;;;;;0.10;0.10;;;;;;;20.06;43.07;102284.31;5056168;28;20041;-66
2023/06/02 06:13:17;;;;;;;0.20;0.20;;;;;;;19.83;43.19;102284.56;5054595;28;20346;-67
2023/06/02 06:15:42;;;;;;;0.20;0.20;;;;;;;19.28;45.38;102293.47;5050752;28;20021;-64
2023/06/02 06:18:07;;;;;;;0.10;0.10;;;;;;;19.20;45.62;102288.44;5050509;28;20461;-67
2023/06/02 06:20:33;;;;;;;0.13;0.13;;;;;;;19.31;45.87;102292.16;5042803;28;20635;-67
2023/06/02 06:22:58;;;;;;;0.20;0.20;;;;;;;19.93;43.86;102293.69;5050584;28;20542;-68
2023/06/02 06:25:24;;;;;;;0.10;0.10;;;;;;;17.46;50.29;102301.66;5050626;28;20029;-65
2023/06/02 06:27:49;;;;;;;0.10;0.10;;;;;;;18.48;47.68;102300.16;5050463;28;20029;-65
2023/06/02 06:30:15;;;;;;;0.17;0.17;;;;;;;18.73;47.09;102311.56;5051075;28;20029;-67
2023/06/02 06:32:40;;;;;;;0.20;0.20;;;;;;;19.57;45.81;102299.72;5050553;28;20056;-65
2023/06/02 06:35:06;;;;;;;0.10;0.10;;;;;;;19.50;45.50;102301.78;5050161;28;20037;-66
2023/06/02 06:37:32;;;;;;;0.15;0.15;;;;;;;18.29;48.46;102309.56;5050384;28;20037;-65
2023/06/02 06:39:57;;;;;;;0.10;0.10;;;;;;;18.44;47.90;102309.09;5050705;28;20047;-66
2023/06/02 06:42:23;;;;;;;0.30;0.30;;;;;;;19.10;46.63;102301.09;5051005;28;20031;-67
2023/06/02 06:44:49;;;;;;;0.20;0.20;;;;;;;17.97;49.54;102306.41;5050196;28;20033;-65
2023/06/02 06:47:15;;;;;;;0.10;0.10;;;;;;;18.75;48.27;102314.84;5049655;28;20029;-66
2023/06/02 06:49:40;;;;;;;0.22;0.20;;;;;;;19.03;47.18;102308.56;5044343;28;20108;-65
2023/06/02 06:52:06;;;;;;;0.10;0.10;;;;;;;19.88;44.92;102314.63;5050289;28;20033;-65
2023/06/02 06:54:31;;;;;;;0.10;0.10;;;;;;;19.95;44.16;102318.81;5050334;28;20547;-68
2023/06/02 06:56:57;;;;;;;0.17;0.17;;;;;;;19.67;45.10;102318.97;5050264;28;20401;-64
2023/06/02 06:59:22;;;;;;;0.10;0.10;;;;;;;19.65;46.04;102320.28;5050134;28;20049;-66
2023/06/02 07:01:48;;;;;;;0.10;0.10;;;;;;;19.70;45.45;102320.34;5053178;28;20081;-64
2023/06/02 07:04:13;;;;;;;0.17;0.17;;;;;;;20.64;43.44;102327.38;5054556;28;20037;-66
2023/06/02 07:06:39;;;;;;;0.20;0.20;;;;;;;19.93;44.82;102315.50;5050248;28;20021;-65
2023/06/02 07:09:04;;;;;;;0.10;0.10;;;;;;;19.92;45.65;102321.22;5050855;28;20028;-66
2023/06/02 07:11:30;;;;;;;0.10;0.10;;;;;;;19.84;45.77;102316.19;5054867;28;20036;-66
2023/06/02 07:13:55;;;;;;;0.20;0.20;;;;;;;20.67;43.26;102322.25;5049642;28;20069;-66
2023/06/02 07:16:21;;;;;;;0.20;0.20;;;;;;;20.96;42.10;102315.47;5031199;28;20037;-66
2023/06/02 07:18:47;;;;;;;0.13;0.13;;;;;;;21.53;41.43;102312.13;5049868;28;20029;-66
2023/06/02 07:21:12;;;;;;;0.20;0.20;;;;;;;21.52;41.49;102321.44;5049946;28;20045;-66
2023/06/02 07:23:38;;;;;;;0.10;0.10;;;;;;;20.29;44.33;102325.06;5049947;28;20048;-66
2023/06/02 07:26:03;;;;;;;0.20;0.20;;;;;;;20.87;43.07;102321.66;5049750;28;20052;-67
2023/06/02 07:28:28;;;;;;;0.10;0.10;;;;;;;20.28;43.87;102325.31;5049854;28;20033;-65
2023/06/02 07:30:54;;;;;;;0.10;0.10;;;;;;;21.42;41.87;102318.63;5053113;28;20029;-67
2023/06/02 07:33:19;;;;;;;0.10;0.10;;;;;;;21.38;41.63;102326.53;5054304;28;20112;-66
2023/06/02 07:35:45;;;;;;;0.15;0.15;;;;;;;20.66;42.58;102327.94;5046999;28;20033;-64
2023/06/02 07:38:11;;;;;;;0.10;0.10;;;;;;;21.59;41.14;102331.09;5053912;28;20036;-65
2023/06/02 07:40:37;;;;;;;0.10;0.10;;;;;;;21.51;41.38;102334.31;5050807;28;20036;-66
2023/06/02 07:43:02;;;;;;;0.10;0.10;;;;;;;20.35;44.16;102323.19;5035888;28;20041;-66
2023/06/02 07:45:28;;;;;;;0.20;0.20;;;;;;;20.10;44.49;102323.69;5054301;28;20035;-65
2023/06/02 07:47:53;;;;;;;0.10;0.10;;;;;;;20.61;44.21;102320.53;5053472;28;20036;-66
2023/06/02 07:50:19;;;;;;;0.10;0.10;;;;;;;21.53;42.15;102315.72;5053396;28;20033;-65
2023/06/02 07:52:45;;;;;;;0.10;0.10;;;;;;;22.51;39.65;102314.09;5053609;28;20083;-65
2023/06/02 07:55:11;;;;;;;0.10;0.10;;;;;;;22.39;40.03;102317.06;5053358;28;20025;-65
2023/06/02 07:57:37;;;;;;;0.20;0.20;;;;;;;20.96;42.86;102322.81;5053388;28;20051;-65
2023/06/02 08:00:28;;;;;;;0.10;0.10;;;;;;;21.59;42.09;102325.59;5058466;28;20029;-65
2023/06/02 08:02:54;;;;;;;0.20;0.20;;;;;;;21.71;41.57;102320.78;5051126;28;20047;-65
2023/06/02 08:05:19;;;;;;;0.20;0.20;;;;;;;21.35;42.39;102318.00;5053194;28;20033;-65
2023/06/02 08:07:45;;;;;;;0.20;0.20;;;;;;;22.33;40.12;102315.38;5053514;28;20033;-66
2023/06/02 08:10:11;;;;;;;0.10;0.10;;;;;;;22.23;41.01;102326.28;5035276;28;20428;-66
2023/06/02 08:12:37;;;;;;;0.10;0.10;;;;;;;21.36;43.10;102322.41;5053302;28;20125;-67
2023/06/02 08:15:04;;;;;;;0.10;0.10;;;;;;;21.27;43.15;102319.31;5023966;28;20452;-65
2023/06/02 08:17:29;;;;;;;0.10;0.10;;;;;;;21.37;43.09;102322.13;5033081;28;20048;-66
2023/06/02 08:19:59;;;;;;;0.10;0.10;;;;;;;21.53;43.02;102332.13;5021435;28;20063;-65
2023/06/02 08:22:27;;;;;;;0.10;0.10;;;;;;;21.56;42.75;102330.78;5053073;28;20073;-64
2023/06/02 08:24:56;;;;;;;0.20;0.20;;;;;;;21.27;43.68;102329.41;5053054;28;20037;-66
2023/06/02 08:27:23;;;;;;;0.10;0.10;;;;;;;22.31;41.58;102323.03;5035453;28;20045;-66
2023/06/02 08:29:49;;;;;;;0.17;0.17;;;;;;;23.09;39.77;102329.34;5052818;28;20033;-65
2023/06/02 08:32:17;;;;;;;0.10;0.10;;;;;;;22.24;41.39;102327.97;5052920;28;20037;-65
2023/06/02 08:34:47;;;;;;;0.10;0.10;;;;;;;21.62;43.16;102327.81;5052837;28;20028;-65
2023/06/02 08:37:16;;;;;;;0.10;0.10;;;;;;;21.88;42.63;102333.50;5051956;28;20021;-65
2023/06/02 08:39:45;;;;;;;0.10;0.10;;;;;;;22.29;41.80;102327.97;5034536;28;20029;-66
2023/06/02 08:42:11;;;;;;;0.20;0.20;;;;;;;22.23;41.58;102329.03;5052276;28;20072;-64
2023/06/02 08:44:38;;;;;;;0.10;0.10;;;;;;;20.92;45.11;102335.34;5067893;28;20037;-66
2023/06/02 08:47:07;;;;;;;0.10;0.10;;;;;;;21.90;43.57;102323.91;5052712;28;20074;-66
2023/06/02 08:49:35;;;;;;;0.10;0.10;;;;;;;20.90;44.82;102329.31;5052401;28;20028;-66
2023/06/02 08:52:05;;;;;;;0.10;0.10;;;;;;;21.94;43.43;102325.03;5052504;28;20516;-65
2023/06/02 08:54:30;;;;;;;0.17;0.17;;;;;;;21.44;43.85;102327.41;5056464;28;20028;-67
2023/06/02 08:56:57;;;;;;;0.10;0.10;;;;;;;21.44;44.54;102321.94;5052234;28;20033;-66
2023/06/02 08:59:24;;;;;;;0.20;0.20;;;;;;;21.12;45.52;102321.91;5052064;28;20045;-65
2023/06/02 09:01:50;;;;;;;0.10;0.10;;;;;;;21.89;43.38;102321.47;5052160;28;20056;-66
2023/06/02 09:04:16;;;;;;;0.10;0.10;;;;;;;23.32;40.45;102313.22;5052240;28;20049;-66
2023/06/02 09:06:43;;;;;;;0.10;0.10;;;;;;;21.68;44.17;102323.19;5052236;28;20693;-66
2023/06/02 09:09:09;;;;;;;0.10;0.10;;;;;;;22.07;43.49;102318.28;5034789;28;20017;-67
2023/06/02 09:11:35;;;;;;;0.10;0.10;;;;;;;23.09;40.81;102329.34;5052343;28;20489;-65
2023/06/02 09:14:01;;;;;;;0.13;0.13;;;;;;;23.32;40.24;102323.34;5051857;28;20550;-66
2023/06/02 09:16:38;;;;;;;0.10;0.10;;;;;;;22.48;42.33;102336.56;5052047;28;20044;-67
2023/06/02 09:19:04;;;;;;;0.10;0.10;;;;;;;22.28;43.37;102331.81;5051988;28;20094;-65
2023/06/02 09:21:32;;;;;;;0.20;0.20;;;;;;;23.13;41.52;102331.28;5032440;28;20050;-67
2023/06/02 09:24:00;;;;;;;0.10;0.10;;;;;;;21.83;44.45;102339.75;5032097;28;20077;-66
2023/06/02 09:26:28;;;;;;;0.10;0.10;;;;;;;22.68;42.32;102340.22;5031762;28;20405;-65
2023/06/02 09:29:12;;;;;;;0.10;0.10;;;;;;;20.96;46.76;102341.97;5031679;28;20501;-67
2023/06/02 09:31:44;;;;;;;0.10;0.10;;;;;;;21.49;45.36;102333.72;5014055;28;20042;-65
2023/06/02 09:34:09;;;;;;;0.10;0.10;;;;;;;22.11;43.96;102336.63;5048124;28;20097;-66
2023/06/02 09:36:36;;;;;;;0.10;0.10;;;;;;;23.84;40.50;102318.34;5051958;28;20412;-65
2023/06/02 09:39:03;;;;;;;0.10;0.10;;;;;;;24.07;39.75;102325.22;5051763;28;20107;-65
2023/06/02 09:41:30;;;;;;;0.20;0.20;;;;;;;22.99;41.31;102335.63;5033708;28;20379;-65
2023/06/02 09:43:56;;;;;;;0.10;0.10;;;;;;;23.88;39.81;102324.13;5051611;28;20537;-67
2023/06/02 09:46:22;;;;;;;0.10;0.10;;;;;;;24.61;38.85;102331.56;5051507;28;20032;-67
2023/06/02 09:48:56;;;;;;;0.10;0.10;;;;;;;24.80;38.08;102320.78;5051469;28;20017;-66
2023/06/02 09:51:23;;;;;;;0.05;0.05;;;;;;;24.56;38.25;102326.13;5052414;28;20021;-66
2023/06/02 09:53:49;;;;;;;0.15;0.15;;;;;;;23.64;39.68;102323.06;5050034;28;20085;-66
2023/06/02 09:56:15;;;;;;;0.20;0.20;;;;;;;24.45;39.43;102324.53;5051127;28;20029;-67
2023/06/02 09:58:41;;;;;;;0.10;0.10;;;;;;;24.64;38.49;102321.94;5050985;28;20124;-66
2023/06/02 10:01:11;;;;;;;0.10;0.10;;;;;;;25.01;38.44;102327.81;5051125;28;20045;-67
2023/06/02 10:03:36;;;;;;;0.00;0.00;;;;;;;25.55;37.38;102328.50;5051237;28;20066;-65
2023/06/02 10:06:26;;;;;;;0.10;0.10;;;;;;;25.77;36.46;102317.81;5051472;28;20025;-69
2023/06/02 10:09:09;;;;;;;0.10;0.10;;;;;;;26.20;35.89;102323.44;5045017;28;20041;-67
2023/06/02 10:12:06;;;;;;;0.10;0.10;;;;;;;25.44;36.99;102313.19;5038862;28;20033;-65
2023/06/02 10:14:37;;;;;;;0.10;0.10;;;;;;;25.19;37.22;102307.88;5000593;28;20041;-67
2023/06/02 10:17:24;;;;;;;0.00;0.00;;;;;;;26.15;35.49;102306.97;5002059;28;20125;-66
2023/06/02 10:20:19;;;;;;;0.08;0.00;;;;;;;26.04;36.05;102311.75;5003066;28;20531;-66
2023/06/02 10:22:50;;;;;;;0.10;0.10;;;;;;;26.01;36.14;102309.56;5002380;28;20406;-66
2023/06/02 10:25:40;;;;;;;0.00;0.00;;;;;;;24.82;37.96;102311.16;5005160;28;20045;-66
2023/06/02 10:28:08;;;;;;;0.10;0.10;;;;;;;24.94;38.21;102300.59;5015115;28;20478;-65
2023/06/02 10:30:35;;;;;;;0.00;0.00;;;;;;;24.57;38.22;102304.97;5017319;28;20026;-67
2023/06/02 10:33:01;;;;;;;0.10;0.10;;;;;;;24.53;38.52;102307.41;5018655;28;20561;-65
2023/06/02 10:35:54;;;;;;;0.10;0.10;;;;;;;25.04;38.05;102305.25;5002552;28;20137;-66
2023/06/02 10:38:27;;;;;;;0.10;0.10;;;;;;;24.92;38.56;102304.78;4998775;28;20135;-66
2023/06/02 10:40:52;;;;;;;0.10;0.10;;;;;;;25.17;37.59;102296.31;4998572;28;20498;-66
2023/06/02 10:43:18;;;;;;;0.10;0.10;;;;;;;25.81;36.77;102299.59;5003087;28;20045;-67
2023/06/02 10:45:44;;;;;;;0.10;0.10;;;;;;;26.31;36.43;102298.22;5018143;28;20111;-67
2023/06/02 10:48:35;;;;;;;0.00;0.00;;;;;;;24.94;38.11;102299.81;4999923;28;20643;-67
2023/06/02 10:51:00;;;;;;;0.10;0.10;;;;;;;25.02;37.93;102288.19;5026701;28;20500;-68
2023/06/02 10:53:26;;;;;;;0.00;0.00;;;;;;;25.20;37.08;102291.06;5040928;28;20029;-66
2023/06/02 10:55:52;;;;;;;0.10;0.10;;;;;;;24.28;40.04;102291.88;5059292;28;20045;-66
2023/06/02 10:58:17;;;;;;;0.10;0.10;;;;;;;25.78;37.07;102283.66;5060452;28;20138;-67
2023/06/02 11:00:45;;;;;;;0.10;0.10;;;;;;;26.48;35.64;102290.28;5058816;28;20021;-66
2023/06/02 11:03:37;;;;;;;0.05;0.05;;;;;;;27.47;33.92;102280.75;5060086;28;20040;-67
2023/06/02 11:06:17;;;;;;;0.00;0.00;;;;;;;26.85;35.69;102281.19;5055554;28;20148;-66
2023/06/02 11:08:44;;;;;;;0.00;0.00;;;;;;;27.41;35.77;102272.88;5050201;28;20025;-68
2023/06/02 11:11:10;;;;;;;0.00;0.00;;;;;;;27.64;33.73;102277.41;5037932;28;20032;-67
2023/06/02 11:13:56;;;;;;;0.08;0.08;;;;;;;27.10;34.69;102280.00;5058480;28;20033;-68
2023/06/02 11:16:21;;;;;;;0.00;0.00;;;;;;;27.49;33.86;102277.69;5055867;28;20029;-66
2023/06/02 11:18:46;;;;;;;0.00;0.00;;;;;;;26.16;35.66;102279.13;5054669;28;20078;-67
2023/06/02 11:21:18;;;;;;;0.00;0.00;;;;;;;25.94;36.69;102285.16;5053831;28;20557;-65
2023/06/02 11:23:44;;;;;;;0.03;0.03;;;;;;;26.78;34.02;102278.00;5052519;28;20033;-68
2023/06/02 11:26:21;;;;;;;0.00;0.00;;;;;;;27.44;34.07;102270.31;5050290;28;20029;-67